sensor_id;sensor_type;location;lat;lon;timestamp;P1;durP1;ratioP1;P2;durP2;ratioP2
79346;SDS011;68815;48.810;44.482;2023-05-07T00:02:06;3.5;;;1.1;;
79346;SDS011;68815;48.810;44.482;2023-05-07T00:05:08;3.7;;;1.3;;
79346;SDS011;68815;48.810;44.482;2023-05-07T00:08:09;3.1;;;1.2;;
79346;SDS011;68815;48.810;44.482;2023-05-07T00:11:11;4.1;;;1.2;;
79346;SDS011;68815;48.810;44.482;2023-05-07T00:14:12;3.4;;;1.2;;
79346;SDS011;68815;48.810;44.482;2023-05-07T00:17:13;3.3;;;1.4;;
79346;SDS011;68815;48.810;44.482;2023-05-07T00:20:15;3;;;1.3;;
79346;SDS011;68815;48.810;44.482;2023-05-07T00:23:16;3.1;;;1.3;;
79346;SDS011;68815;48.810;44.482;2023-05-07T00:26:18;3.5;;;1.4;;
79346;SDS011;68815;48.810;44.482;2023-05-07T00:29:19;3.4;;;1.3;;
79346;SDS011;68815;48.810;44.482;2023-05-07T00:32:20;2.8;;;1.2;;
79346;SDS011;68815;48.810;44.482;2023-05-07T00:35:22;3.4;;;1.3;;
79346;SDS011;68815;48.810;44.482;2023-05-07T00:38:23;3.6;;;1.3;;
79346;SDS011;68815;48.810;44.482;2023-05-07T00:41:25;3.4;;;1.2;;
79346;SDS011;68815;48.810;44.482;2023-05-07T00:44:26;3.4;;;1.2;;
79346;SDS011;68815;48.810;44.482;2023-05-07T00:47:28;3.2;;;1.4;;
79346;SDS011;68815;48.810;44.482;2023-05-07T00:50:30;3.1;;;1.3;;
79346;SDS011;68815;48.810;44.482;2023-05-07T00:53:32;3.3;;;1.4;;
79346;SDS011;68815;48.810;44.482;2023-05-07T00:56:33;3.1;;;1.3;;
79346;SDS011;68815;48.810;44.482;2023-05-07T00:59:35;3;;;1.2;;
79346;SDS011;68815;48.810;44.482;2023-05-07T01:02:37;4;;;1.3;;
79346;SDS011;68815;48.810;44.482;2023-05-07T01:05:38;4.7;;;1.4;;
79346;SDS011;68815;48.810;44.482;2023-05-07T01:08:41;3.9;;;1.5;;
79346;SDS011;68815;48.810;44.482;2023-05-07T01:11:43;3.3;;;1.3;;
79346;SDS011;68815;48.810;44.482;2023-05-07T01:14:44;3.9;;;1.5;;
79346;SDS011;68815;48.810;44.482;2023-05-07T01:17:46;3.4;;;1.2;;
79346;SDS011;68815;48.810;44.482;2023-05-07T01:20:47;3.4;;;1.3;;
79346;SDS011;68815;48.810;44.482;2023-05-07T01:23:49;3.1;;;1.3;;
79346;SDS011;68815;48.810;44.482;2023-05-07T01:26:50;4.2;;;1.3;;
79346;SDS011;68815;48.810;44.482;2023-05-07T01:29:52;4.2;;;1.3;;
79346;SDS011;68815;48.810;44.482;2023-05-07T01:32:57;3.2;;;1.4;;
79346;SDS011;68815;48.810;44.482;2023-05-07T01:36:03;3.2;;;1.2;;
79346;SDS011;68815;48.810;44.482;2023-05-07T01:39:06;5.1;;;1.6;;
79346;SDS011;68815;48.810;44.482;2023-05-07T01:42:08;2.7;;;1.2;;
79346;SDS011;68815;48.810;44.482;2023-05-07T01:45:10;3.9;;;1.2;;
79346;SDS011;68815;48.810;44.482;2023-05-07T01:48:12;3.5;;;1.3;;
79346;SDS011;68815;48.810;44.482;2023-05-07T01:51:15;3.6;;;1.2;;
79346;SDS011;68815;48.810;44.482;2023-05-07T01:54:16;3.7;;;1.3;;
79346;SDS011;68815;48.810;44.482;2023-05-07T01:57:18;3.1;;;1.2;;
79346;SDS011;68815;48.810;44.482;2023-05-07T02:00:20;3.8;;;1.2;;
79346;SDS011;68815;48.810;44.482;2023-05-07T02:03:21;3;;;1;;
79346;SDS011;68815;48.810;44.482;2023-05-07T02:06:22;3.2;;;1.2;;
79346;SDS011;68815;48.810;44.482;2023-05-07T02:09:24;3.1;;;1.2;;
79346;SDS011;68815;48.810;44.482;2023-05-07T02:12:25;4.1;;;1.4;;
79346;SDS011;68815;48.810;44.482;2023-05-07T02:15:27;3.3;;;1.3;;
79346;SDS011;68815;48.810;44.482;2023-05-07T02:18:29;2.7;;;1.1;;
79346;SDS011;68815;48.810;44.482;2023-05-07T02:21:30;3;;;1.3;;
79346;SDS011;68815;48.810;44.482;2023-05-07T02:24:32;3;;;1.3;;
79346;SDS011;68815;48.810;44.482;2023-05-07T02:27:33;3.3;;;1.4;;
79346;SDS011;68815;48.810;44.482;2023-05-07T02:30:35;3.4;;;1.2;;
79346;SDS011;68815;48.810;44.482;2023-05-07T02:33:37;3.3;;;1.4;;
79346;SDS011;68815;48.810;44.482;2023-05-07T02:36:39;3.8;;;1.5;;
79346;SDS011;68815;48.810;44.482;2023-05-07T02:39:40;3.2;;;1.1;;
79346;SDS011;68815;48.810;44.482;2023-05-07T02:42:42;3.8;;;1.3;;
79346;SDS011;68815;48.810;44.482;2023-05-07T02:45:43;3.5;;;1.2;;
79346;SDS011;68815;48.810;44.482;2023-05-07T02:48:45;3.4;;;1.2;;
79346;SDS011;68815;48.810;44.482;2023-05-07T02:51:46;3.4;;;1.2;;
79346;SDS011;68815;48.810;44.482;2023-05-07T02:54:47;6;;;1.7;;
79346;SDS011;68815;48.810;44.482;2023-05-07T02:57:48;3.1;;;1.4;;
79346;SDS011;68815;48.810;44.482;2023-05-07T03:00:50;4.1;;;1.4;;
79346;SDS011;68815;48.810;44.482;2023-05-07T03:03:52;6.9;;;1.4;;
79346;SDS011;68815;48.810;44.482;2023-05-07T03:06:53;3.2;;;1.4;;
79346;SDS011;68815;48.810;44.482;2023-05-07T03:09:55;3.6;;;1.4;;
79346;SDS011;68815;48.810;44.482;2023-05-07T03:12:56;3.2;;;1.4;;
79346;SDS011;68815;48.810;44.482;2023-05-07T03:15:58;3.3;;;1.2;;
79346;SDS011;68815;48.810;44.482;2023-05-07T03:18:59;3.9;;;1.5;;
79346;SDS011;68815;48.810;44.482;2023-05-07T03:22:00;3.1;;;1.3;;
79346;SDS011;68815;48.810;44.482;2023-05-07T03:25:02;3.3;;;1.5;;
79346;SDS011;68815;48.810;44.482;2023-05-07T03:28:10;3;;;1.4;;
79346;SDS011;68815;48.810;44.482;2023-05-07T03:31:12;3.2;;;1.5;;
79346;SDS011;68815;48.810;44.482;2023-05-07T03:34:13;3.2;;;1.6;;
79346;SDS011;68815;48.810;44.482;2023-05-07T03:37:15;4.9;;;1.3;;
79346;SDS011;68815;48.810;44.482;2023-05-07T03:40:16;4.7;;;1.5;;
79346;SDS011;68815;48.810;44.482;2023-05-07T03:43:17;3.7;;;1.3;;
79346;SDS011;68815;48.810;44.482;2023-05-07T03:46:19;3.4;;;1.5;;
79346;SDS011;68815;48.810;44.482;2023-05-07T03:49:21;3.8;;;1.5;;
79346;SDS011;68815;48.810;44.482;2023-05-07T03:52:22;3.3;;;1.4;;
79346;SDS011;68815;48.810;44.482;2023-05-07T03:55:24;3.5;;;1.3;;
79346;SDS011;68815;48.810;44.482;2023-05-07T03:58:26;4.7;;;1.6;;
79346;SDS011;68815;48.810;44.482;2023-05-07T04:01:27;4.1;;;1.5;;
79346;SDS011;68815;48.810;44.482;2023-05-07T04:04:29;3.6;;;1.6;;
79346;SDS011;68815;48.810;44.482;2023-05-07T04:07:30;3.7;;;1.4;;
79346;SDS011;68815;48.810;44.482;2023-05-07T04:10:32;3.9;;;1.6;;
79346;SDS011;68815;48.810;44.482;2023-05-07T04:13:33;3.3;;;1.4;;
79346;SDS011;68815;48.810;44.482;2023-05-07T04:16:35;3.7;;;1.4;;
79346;SDS011;68815;48.810;44.482;2023-05-07T04:19:36;3;;;1.4;;
79346;SDS011;68815;48.810;44.482;2023-05-07T04:22:38;4.7;;;1.6;;
79346;SDS011;68815;48.810;44.482;2023-05-07T04:25:39;4;;;1.4;;
79346;SDS011;68815;48.810;44.482;2023-05-07T04:28:41;3.6;;;1.4;;
79346;SDS011;68815;48.810;44.482;2023-05-07T04:31:43;4.8;;;1.5;;
79346;SDS011;68815;48.810;44.482;2023-05-07T04:34:44;3.7;;;1.6;;
79346;SDS011;68815;48.810;44.482;2023-05-07T04:37:45;4.3;;;1.5;;
79346;SDS011;68815;48.810;44.482;2023-05-07T04:40:47;3.8;;;1.5;;
79346;SDS011;68815;48.810;44.482;2023-05-07T04:43:48;4.9;;;1.5;;
79346;SDS011;68815;48.810;44.482;2023-05-07T04:46:50;3.6;;;1.6;;
79346;SDS011;68815;48.810;44.482;2023-05-07T04:49:51;3.8;;;1.7;;
79346;SDS011;68815;48.810;44.482;2023-05-07T04:52:52;3.7;;;1.6;;
79346;SDS011;68815;48.810;44.482;2023-05-07T04:55:55;3.9;;;1.7;;
79346;SDS011;68815;48.810;44.482;2023-05-07T04:58:57;3.8;;;1.6;;
79346;SDS011;68815;48.810;44.482;2023-05-07T05:01:58;4.5;;;1.5;;
79346;SDS011;68815;48.810;44.482;2023-05-07T05:04:59;4.1;;;1.6;;
79346;SDS011;68815;48.810;44.482;2023-05-07T05:08:01;3.8;;;1.9;;
79346;SDS011;68815;48.810;44.482;2023-05-07T05:11:02;4.5;;;1.5;;
79346;SDS011;68815;48.810;44.482;2023-05-07T05:14:04;5;;;1.7;;
79346;SDS011;68815;48.810;44.482;2023-05-07T05:17:05;7.2;;;2.3;;
79346;SDS011;68815;48.810;44.482;2023-05-07T05:20:07;3.5;;;1.6;;
79346;SDS011;68815;48.810;44.482;2023-05-07T05:23:08;4.4;;;1.8;;
79346;SDS011;68815;48.810;44.482;2023-05-07T05:26:10;5;;;1.7;;
79346;SDS011;68815;48.810;44.482;2023-05-07T05:29:11;3.7;;;1.7;;
79346;SDS011;68815;48.810;44.482;2023-05-07T05:32:13;5;;;1.8;;
79346;SDS011;68815;48.810;44.482;2023-05-07T05:35:15;4.4;;;1.7;;
79346;SDS011;68815;48.810;44.482;2023-05-07T05:38:16;4;;;1.7;;
79346;SDS011;68815;48.810;44.482;2023-05-07T05:41:18;4.6;;;1.8;;
79346;SDS011;68815;48.810;44.482;2023-05-07T05:44:19;6.3;;;2.1;;
79346;SDS011;68815;48.810;44.482;2023-05-07T05:47:21;4.8;;;1.7;;
79346;SDS011;68815;48.810;44.482;2023-05-07T05:50:23;5.2;;;1.8;;
79346;SDS011;68815;48.810;44.482;2023-05-07T05:53:24;5.1;;;2.1;;
79346;SDS011;68815;48.810;44.482;2023-05-07T05:56:26;5.1;;;2;;
79346;SDS011;68815;48.810;44.482;2023-05-07T05:59:28;5.8;;;2.1;;
79346;SDS011;68815;48.810;44.482;2023-05-07T06:02:29;6.7;;;1.9;;
79346;SDS011;68815;48.810;44.482;2023-05-07T06:05:30;6.4;;;1.9;;
79346;SDS011;68815;48.810;44.482;2023-05-07T06:08:31;6.2;;;2;;
79346;SDS011;68815;48.810;44.482;2023-05-07T06:11:33;4.3;;;2.1;;
79346;SDS011;68815;48.810;44.482;2023-05-07T06:14:35;8.5;;;2.4;;
79346;SDS011;68815;48.810;44.482;2023-05-07T06:17:36;6.2;;;2;;
79346;SDS011;68815;48.810;44.482;2023-05-07T06:20:37;5.7;;;2;;
79346;SDS011;68815;48.810;44.482;2023-05-07T06:23:39;9;;;2.2;;
79346;SDS011;68815;48.810;44.482;2023-05-07T06:26:40;6.5;;;2.3;;
79346;SDS011;68815;48.810;44.482;2023-05-07T06:29:41;4;;;2.2;;
79346;SDS011;68815;48.810;44.482;2023-05-07T06:32:44;5.7;;;2.3;;
79346;SDS011;68815;48.810;44.482;2023-05-07T06:35:45;4.7;;;2.1;;
79346;SDS011;68815;48.810;44.482;2023-05-07T06:38:46;10.7;;;2.3;;
79346;SDS011;68815;48.810;44.482;2023-05-07T06:41:48;4.8;;;2.1;;
79346;SDS011;68815;48.810;44.482;2023-05-07T06:44:49;7.5;;;2.2;;
79346;SDS011;68815;48.810;44.482;2023-05-07T06:47:51;5.2;;;2.1;;
79346;SDS011;68815;48.810;44.482;2023-05-07T06:50:52;7.5;;;2.3;;
79346;SDS011;68815;48.810;44.482;2023-05-07T06:53:54;4.5;;;2.2;;
79346;SDS011;68815;48.810;44.482;2023-05-07T06:56:55;4.7;;;2.3;;
79346;SDS011;68815;48.810;44.482;2023-05-07T06:59:57;5;;;2.3;;
79346;SDS011;68815;48.810;44.482;2023-05-07T07:02:58;8.5;;;2.6;;
79346;SDS011;68815;48.810;44.482;2023-05-07T07:06:00;6.7;;;2.7;;
79346;SDS011;68815;48.810;44.482;2023-05-07T07:09:01;6.1;;;2.2;;
79346;SDS011;68815;48.810;44.482;2023-05-07T07:12:03;6.5;;;2.2;;
79346;SDS011;68815;48.810;44.482;2023-05-07T07:15:05;4.2;;;2.2;;
79346;SDS011;68815;48.810;44.482;2023-05-07T07:18:07;6.2;;;2.2;;
79346;SDS011;68815;48.810;44.482;2023-05-07T07:21:08;5.1;;;2;;
79346;SDS011;68815;48.810;44.482;2023-05-07T07:24:10;10.6;;;2.5;;
79346;SDS011;68815;48.810;44.482;2023-05-07T07:27:11;10.1;;;2.5;;
79346;SDS011;68815;48.810;44.482;2023-05-07T07:30:13;11.6;;;2.5;;
79346;SDS011;68815;48.810;44.482;2023-05-07T07:33:15;4.3;;;2;;
79346;SDS011;68815;48.810;44.482;2023-05-07T07:36:16;9.1;;;2.2;;
79346;SDS011;68815;48.810;44.482;2023-05-07T07:39:18;5.3;;;2.5;;
79346;SDS011;68815;48.810;44.482;2023-05-07T07:42:19;4.9;;;2.1;;
79346;SDS011;68815;48.810;44.482;2023-05-07T07:45:21;8.3;;;2.2;;
79346;SDS011;68815;48.810;44.482;2023-05-07T07:48:23;4.2;;;2.2;;
79346;SDS011;68815;48.810;44.482;2023-05-07T07:51:24;5.4;;;2.2;;
79346;SDS011;68815;48.810;44.482;2023-05-07T07:54:25;5;;;2.2;;
79346;SDS011;68815;48.810;44.482;2023-05-07T07:57:27;6.6;;;2.3;;
79346;SDS011;68815;48.810;44.482;2023-05-07T08:00:28;6.5;;;2.1;;
79346;SDS011;68815;48.810;44.482;2023-05-07T08:03:30;5;;;2.3;;
79346;SDS011;68815;48.810;44.482;2023-05-07T08:06:31;6.1;;;2.6;;
79346;SDS011;68815;48.810;44.482;2023-05-07T08:09:32;4.6;;;1.9;;
79346;SDS011;68815;48.810;44.482;2023-05-07T08:12:34;4.5;;;2;;
79346;SDS011;68815;48.810;44.482;2023-05-07T08:15:36;5.6;;;2.1;;
79346;SDS011;68815;48.810;44.482;2023-05-07T08:18:37;4.5;;;2.1;;
79346;SDS011;68815;48.810;44.482;2023-05-07T08:21:39;6.3;;;2.1;;
79346;SDS011;68815;48.810;44.482;2023-05-07T08:24:41;5.3;;;2.2;;
79346;SDS011;68815;48.810;44.482;2023-05-07T08:27:42;7.4;;;2.2;;
79346;SDS011;68815;48.810;44.482;2023-05-07T08:30:43;4.4;;;2.2;;
79346;SDS011;68815;48.810;44.482;2023-05-07T08:33:45;4.9;;;2.1;;
79346;SDS011;68815;48.810;44.482;2023-05-07T08:36:47;5;;;2.1;;
79346;SDS011;68815;48.810;44.482;2023-05-07T08:39:48;4.8;;;2.2;;
79346;SDS011;68815;48.810;44.482;2023-05-07T08:42:50;4.9;;;2.1;;
79346;SDS011;68815;48.810;44.482;2023-05-07T08:45:53;5.5;;;2.2;;
79346;SDS011;68815;48.810;44.482;2023-05-07T08:48:55;6.7;;;2.2;;
79346;SDS011;68815;48.810;44.482;2023-05-07T08:51:56;6.2;;;2.3;;
79346;SDS011;68815;48.810;44.482;2023-05-07T08:54:58;5.7;;;2.3;;
79346;SDS011;68815;48.810;44.482;2023-05-07T08:58:00;5.1;;;2;;
79346;SDS011;68815;48.810;44.482;2023-05-07T09:01:02;4.9;;;2.1;;
79346;SDS011;68815;48.810;44.482;2023-05-07T09:04:08;7.2;;;2.3;;
79346;SDS011;68815;48.810;44.482;2023-05-07T09:07:10;6.6;;;2.2;;
79346;SDS011;68815;48.810;44.482;2023-05-07T09:10:11;4.7;;;2.3;;
79346;SDS011;68815;48.810;44.482;2023-05-07T09:13:14;5.2;;;2.2;;
79346;SDS011;68815;48.810;44.482;2023-05-07T09:19:43;4.8;;;2.3;;
79346;SDS011;68815;48.810;44.482;2023-05-07T09:22:45;4.1;;;2.3;;
79346;SDS011;68815;48.810;44.482;2023-05-07T09:25:46;4;;;1.8;;
79346;SDS011;68815;48.810;44.482;2023-05-07T09:28:48;4.4;;;2.2;;
79346;SDS011;68815;48.810;44.482;2023-05-07T09:31:50;5.1;;;2.3;;
79346;SDS011;68815;48.810;44.482;2023-05-07T09:34:51;4.7;;;2.7;;
79346;SDS011;68815;48.810;44.482;2023-05-07T09:41:24;6.6;;;2.5;;
79346;SDS011;68815;48.810;44.482;2023-05-07T09:47:58;4.8;;;2.2;;
79346;SDS011;68815;48.810;44.482;2023-05-07T09:51:01;6.1;;;2.4;;
79346;SDS011;68815;48.810;44.482;2023-05-07T09:54:04;5.8;;;2.5;;
79346;SDS011;68815;48.810;44.482;2023-05-07T09:57:06;5.6;;;2.4;;
79346;SDS011;68815;48.810;44.482;2023-05-07T10:00:09;5.6;;;2.7;;
79346;SDS011;68815;48.810;44.482;2023-05-07T10:03:11;5.5;;;2.5;;
79346;SDS011;68815;48.810;44.482;2023-05-07T10:06:14;6;;;2.5;;
79346;SDS011;68815;48.810;44.482;2023-05-07T10:09:15;6.3;;;2.5;;
79346;SDS011;68815;48.810;44.482;2023-05-07T10:12:18;4.8;;;2.4;;
79346;SDS011;68815;48.810;44.482;2023-05-07T10:15:21;5.1;;;2.2;;
79346;SDS011;68815;48.810;44.482;2023-05-07T10:18:23;7.1;;;2.7;;
79346;SDS011;68815;48.810;44.482;2023-05-07T10:21:26;7.3;;;2.6;;
79346;SDS011;68815;48.810;44.482;2023-05-07T10:24:29;5;;;2.3;;
79346;SDS011;68815;48.810;44.482;2023-05-07T10:27:33;5.5;;;2.5;;
79346;SDS011;68815;48.810;44.482;2023-05-07T10:30:38;5.2;;;2.4;;
79346;SDS011;68815;48.810;44.482;2023-05-07T10:33:50;6.6;;;2.5;;
79346;SDS011;68815;48.810;44.482;2023-05-07T10:36:53;6.5;;;2.3;;
79346;SDS011;68815;48.810;44.482;2023-05-07T10:39:56;6.7;;;2.5;;
79346;SDS011;68815;48.810;44.482;2023-05-07T10:42:58;4.8;;;2.7;;
79346;SDS011;68815;48.810;44.482;2023-05-07T10:49:19;6.9;;;2.4;;
79346;SDS011;68815;48.810;44.482;2023-05-07T10:52:22;5.6;;;3;;
79346;SDS011;68815;48.810;44.482;2023-05-07T10:55:24;4.8;;;2.5;;
79346;SDS011;68815;48.810;44.482;2023-05-07T10:58:26;5.5;;;2.4;;
79346;SDS011;68815;48.810;44.482;2023-05-07T11:08:21;8.2;;;3.5;;
79346;SDS011;68815;48.810;44.482;2023-05-07T11:15:00;6.6;;;3.5;;
79346;SDS011;68815;48.810;44.482;2023-05-07T11:18:01;4.9;;;2.6;;
79346;SDS011;68815;48.810;44.482;2023-05-07T11:21:03;5.6;;;2.8;;
79346;SDS011;68815;48.810;44.482;2023-05-07T11:24:05;4.8;;;2.6;;
79346;SDS011;68815;48.810;44.482;2023-05-07T11:27:08;5.2;;;2.6;;
79346;SDS011;68815;48.810;44.482;2023-05-07T11:30:16;5.6;;;2.6;;
79346;SDS011;68815;48.810;44.482;2023-05-07T11:33:18;9.8;;;2.6;;
79346;SDS011;68815;48.810;44.482;2023-05-07T11:36:21;5;;;2.8;;
79346;SDS011;68815;48.810;44.482;2023-05-07T11:39:24;7.1;;;3.7;;
79346;SDS011;68815;48.810;44.482;2023-05-07T11:42:25;7.9;;;3.3;;
79346;SDS011;68815;48.810;44.482;2023-05-07T11:45:28;5.5;;;2.8;;
79346;SDS011;68815;48.810;44.482;2023-05-07T11:48:29;4.7;;;3;;
79346;SDS011;68815;48.810;44.482;2023-05-07T11:51:31;6.5;;;2.8;;
79346;SDS011;68815;48.810;44.482;2023-05-07T11:54:35;5.8;;;2.7;;
79346;SDS011;68815;48.810;44.482;2023-05-07T11:57:36;4.8;;;2.6;;
79346;SDS011;68815;48.810;44.482;2023-05-07T12:00:37;5.8;;;2.9;;
79346;SDS011;68815;48.810;44.482;2023-05-07T12:03:40;6.7;;;2.9;;
79346;SDS011;68815;48.810;44.482;2023-05-07T12:06:42;6.2;;;3.4;;
79346;SDS011;68815;48.810;44.482;2023-05-07T12:09:44;4.7;;;2.8;;
79346;SDS011;68815;48.810;44.482;2023-05-07T12:12:46;6.1;;;3;;
79346;SDS011;68815;48.810;44.482;2023-05-07T12:15:50;5.8;;;3;;
79346;SDS011;68815;48.810;44.482;2023-05-07T12:18:52;6.6;;;3.1;;
79346;SDS011;68815;48.810;44.482;2023-05-07T12:21:55;6.4;;;3;;
79346;SDS011;68815;48.810;44.482;2023-05-07T12:24:57;6.3;;;3.1;;
79346;SDS011;68815;48.810;44.482;2023-05-07T12:28:00;4.8;;;2.9;;
79346;SDS011;68815;48.810;44.482;2023-05-07T12:31:02;5.5;;;2.9;;
79346;SDS011;68815;48.810;44.482;2023-05-07T12:34:04;6.4;;;2.8;;
79346;SDS011;68815;48.810;44.482;2023-05-07T12:37:06;7.2;;;3.2;;
79346;SDS011;68815;48.810;44.482;2023-05-07T12:40:08;6.8;;;3.5;;
79346;SDS011;68815;48.810;44.482;2023-05-07T12:43:15;5.7;;;3.1;;
79346;SDS011;68815;48.810;44.482;2023-05-07T12:46:17;6.6;;;2.8;;
79346;SDS011;68815;48.810;44.482;2023-05-07T12:49:18;6;;;2.8;;
79346;SDS011;68815;48.810;44.482;2023-05-07T12:52:20;5.6;;;2.9;;
79346;SDS011;68815;48.810;44.482;2023-05-07T12:55:21;6.1;;;3.1;;
79346;SDS011;68815;48.810;44.482;2023-05-07T12:58:24;7.8;;;3.7;;
79346;SDS011;68815;48.810;44.482;2023-05-07T13:01:29;6.4;;;3.5;;
79346;SDS011;68815;48.810;44.482;2023-05-07T13:04:31;11.3;;;3.6;;
79346;SDS011;68815;48.810;44.482;2023-05-07T13:07:33;5.5;;;2.9;;
79346;SDS011;68815;48.810;44.482;2023-05-07T13:10:34;6.7;;;3;;
79346;SDS011;68815;48.810;44.482;2023-05-07T13:13:36;4.7;;;2.9;;
79346;SDS011;68815;48.810;44.482;2023-05-07T13:16:39;7.1;;;3.3;;
79346;SDS011;68815;48.810;44.482;2023-05-07T13:19:40;7;;;3.6;;
79346;SDS011;68815;48.810;44.482;2023-05-07T13:22:42;6.6;;;3.3;;
79346;SDS011;68815;48.810;44.482;2023-05-07T13:25:43;7.5;;;3.7;;
79346;SDS011;68815;48.810;44.482;2023-05-07T13:28:45;6.7;;;4;;
79346;SDS011;68815;48.810;44.482;2023-05-07T13:31:46;7.4;;;4.2;;
79346;SDS011;68815;48.810;44.482;2023-05-07T13:34:47;8.3;;;3.6;;
79346;SDS011;68815;48.810;44.482;2023-05-07T13:37:49;6.8;;;3.9;;
79346;SDS011;68815;48.810;44.482;2023-05-07T13:40:50;7;;;4;;
79346;SDS011;68815;48.810;44.482;2023-05-07T13:43:52;6.6;;;4;;
79346;SDS011;68815;48.810;44.482;2023-05-07T13:46:55;5.5;;;3.4;;
79346;SDS011;68815;48.810;44.482;2023-05-07T13:50:02;6.1;;;3.5;;
79346;SDS011;68815;48.810;44.482;2023-05-07T13:53:06;6.9;;;4;;
79346;SDS011;68815;48.810;44.482;2023-05-07T13:56:08;5.9;;;3.7;;
79346;SDS011;68815;48.810;44.482;2023-05-07T13:59:10;6.7;;;3.3;;
79346;SDS011;68815;48.810;44.482;2023-05-07T14:02:11;6.7;;;3.3;;
79346;SDS011;68815;48.810;44.482;2023-05-07T14:05:12;6.1;;;3.2;;
79346;SDS011;68815;48.810;44.482;2023-05-07T14:08:14;8.6;;;4.8;;
79346;SDS011;68815;48.810;44.482;2023-05-07T14:11:15;6.2;;;3.5;;
79346;SDS011;68815;48.810;44.482;2023-05-07T14:14:17;7.8;;;3.7;;
79346;SDS011;68815;48.810;44.482;2023-05-07T14:17:18;6.5;;;3.4;;
79346;SDS011;68815;48.810;44.482;2023-05-07T14:20:20;7.6;;;3.8;;
79346;SDS011;68815;48.810;44.482;2023-05-07T14:23:22;8.5;;;4;;
79346;SDS011;68815;48.810;44.482;2023-05-07T14:26:23;10;;;4.9;;
79346;SDS011;68815;48.810;44.482;2023-05-07T14:29:24;10.6;;;5.1;;
79346;SDS011;68815;48.810;44.482;2023-05-07T14:32:26;7.9;;;4.2;;
79346;SDS011;68815;48.810;44.482;2023-05-07T14:35:28;7.7;;;3.6;;
79346;SDS011;68815;48.810;44.482;2023-05-07T14:38:29;5.3;;;2.8;;
79346;SDS011;68815;48.810;44.482;2023-05-07T14:41:32;5.4;;;2.4;;
79346;SDS011;68815;48.810;44.482;2023-05-07T14:44:33;5;;;2.6;;
79346;SDS011;68815;48.810;44.482;2023-05-07T14:47:35;4.7;;;2.5;;
79346;SDS011;68815;48.810;44.482;2023-05-07T14:50:37;4.4;;;2.5;;
79346;SDS011;68815;48.810;44.482;2023-05-07T14:53:38;6.3;;;2.9;;
79346;SDS011;68815;48.810;44.482;2023-05-07T14:56:41;6.3;;;2.7;;
79346;SDS011;68815;48.810;44.482;2023-05-07T14:59:43;5.8;;;2.8;;
79346;SDS011;68815;48.810;44.482;2023-05-07T15:02:44;6.1;;;2.7;;
79346;SDS011;68815;48.810;44.482;2023-05-07T15:05:46;6.9;;;3.4;;
79346;SDS011;68815;48.810;44.482;2023-05-07T15:08:48;5.8;;;3.4;;
79346;SDS011;68815;48.810;44.482;2023-05-07T15:11:49;5;;;2.9;;
79346;SDS011;68815;48.810;44.482;2023-05-07T15:14:51;5.6;;;2.6;;
79346;SDS011;68815;48.810;44.482;2023-05-07T15:17:52;5.8;;;2.7;;
79346;SDS011;68815;48.810;44.482;2023-05-07T15:20:54;7.1;;;4.2;;
79346;SDS011;68815;48.810;44.482;2023-05-07T15:23:56;7.9;;;3.1;;
79346;SDS011;68815;48.810;44.482;2023-05-07T15:26:57;5.9;;;3.2;;
79346;SDS011;68815;48.810;44.482;2023-05-07T15:29:59;5.6;;;3.2;;
79346;SDS011;68815;48.810;44.482;2023-05-07T15:33:01;5.6;;;3;;
79346;SDS011;68815;48.810;44.482;2023-05-07T15:36:03;6.5;;;3.2;;
79346;SDS011;68815;48.810;44.482;2023-05-07T15:39:05;5.4;;;3.3;;
79346;SDS011;68815;48.810;44.482;2023-05-07T15:42:06;5;;;2.5;;
79346;SDS011;68815;48.810;44.482;2023-05-07T15:45:09;5.7;;;2.5;;
79346;SDS011;68815;48.810;44.482;2023-05-07T15:48:10;4.8;;;2.4;;
79346;SDS011;68815;48.810;44.482;2023-05-07T15:51:12;5.8;;;2.6;;
79346;SDS011;68815;48.810;44.482;2023-05-07T15:54:14;6.5;;;2.5;;
79346;SDS011;68815;48.810;44.482;2023-05-07T15:57:15;4.4;;;2;;
79346;SDS011;68815;48.810;44.482;2023-05-07T16:00:17;5.8;;;2.6;;
79346;SDS011;68815;48.810;44.482;2023-05-07T16:03:19;4.9;;;2.2;;
79346;SDS011;68815;48.810;44.482;2023-05-07T16:06:20;4.1;;;2;;
79346;SDS011;68815;48.810;44.482;2023-05-07T16:09:22;4.9;;;2.1;;
79346;SDS011;68815;48.810;44.482;2023-05-07T16:12:23;5.7;;;2;;
79346;SDS011;68815;48.810;44.482;2023-05-07T16:15:25;5.6;;;2;;
79346;SDS011;68815;48.810;44.482;2023-05-07T16:18:27;4.3;;;1.8;;
79346;SDS011;68815;48.810;44.482;2023-05-07T16:21:28;4.5;;;1.9;;
79346;SDS011;68815;48.810;44.482;2023-05-07T16:24:30;4.6;;;1.9;;
79346;SDS011;68815;48.810;44.482;2023-05-07T16:27:31;4.3;;;2.1;;
79346;SDS011;68815;48.810;44.482;2023-05-07T16:30:32;4.8;;;2.2;;
79346;SDS011;68815;48.810;44.482;2023-05-07T16:33:34;4.6;;;2.2;;
79346;SDS011;68815;48.810;44.482;2023-05-07T16:36:35;7;;;2.4;;
79346;SDS011;68815;48.810;44.482;2023-05-07T16:39:37;5.8;;;2.5;;
79346;SDS011;68815;48.810;44.482;2023-05-07T16:42:38;4.9;;;2.6;;
79346;SDS011;68815;48.810;44.482;2023-05-07T16:45:40;6.7;;;2.7;;
79346;SDS011;68815;48.810;44.482;2023-05-07T16:48:41;6.5;;;2.8;;
79346;SDS011;68815;48.810;44.482;2023-05-07T16:51:43;7.1;;;3;;
79346;SDS011;68815;48.810;44.482;2023-05-07T16:54:45;6.8;;;3;;
79346;SDS011;68815;48.810;44.482;2023-05-07T16:57:46;10.8;;;3.2;;
79346;SDS011;68815;48.810;44.482;2023-05-07T17:00:48;6.6;;;3;;
79346;SDS011;68815;48.810;44.482;2023-05-07T17:03:49;7;;;3;;
79346;SDS011;68815;48.810;44.482;2023-05-07T17:06:51;6.8;;;2.7;;
79346;SDS011;68815;48.810;44.482;2023-05-07T17:09:53;5.2;;;2.5;;
79346;SDS011;68815;48.810;44.482;2023-05-07T17:12:54;5.5;;;2.1;;
79346;SDS011;68815;48.810;44.482;2023-05-07T17:15:55;4.2;;;2.1;;
79346;SDS011;68815;48.810;44.482;2023-05-07T17:18:57;4.2;;;2.2;;
79346;SDS011;68815;48.810;44.482;2023-05-07T17:21:58;5.8;;;2.1;;
79346;SDS011;68815;48.810;44.482;2023-05-07T17:25:00;4;;;2.2;;
79346;SDS011;68815;48.810;44.482;2023-05-07T17:28:01;4.5;;;2.2;;
79346;SDS011;68815;48.810;44.482;2023-05-07T17:31:02;4.7;;;2;;
79346;SDS011;68815;48.810;44.482;2023-05-07T17:34:04;5.3;;;2.3;;
79346;SDS011;68815;48.810;44.482;2023-05-07T17:37:05;4;;;2;;
79346;SDS011;68815;48.810;44.482;2023-05-07T17:40:07;3.8;;;2.3;;
79346;SDS011;68815;48.810;44.482;2023-05-07T17:43:08;3.9;;;2;;
79346;SDS011;68815;48.810;44.482;2023-05-07T17:46:10;4.6;;;1.9;;
79346;SDS011;68815;48.810;44.482;2023-05-07T17:49:13;4.4;;;2;;
79346;SDS011;68815;48.810;44.482;2023-05-07T17:52:15;5.3;;;2.1;;
79346;SDS011;68815;48.810;44.482;2023-05-07T17:55:17;4.1;;;2;;
79346;SDS011;68815;48.810;44.482;2023-05-07T17:58:18;4.7;;;2.1;;
79346;SDS011;68815;48.810;44.482;2023-05-07T18:01:20;5.4;;;2.4;;
79346;SDS011;68815;48.810;44.482;2023-05-07T18:04:21;6.5;;;2.7;;
79346;SDS011;68815;48.810;44.482;2023-05-07T18:07:23;6;;;2.6;;
79346;SDS011;68815;48.810;44.482;2023-05-07T18:10:24;5.2;;;2.5;;
79346;SDS011;68815;48.810;44.482;2023-05-07T18:13:26;5.3;;;2.2;;
79346;SDS011;68815;48.810;44.482;2023-05-07T18:16:27;5.2;;;2.3;;
79346;SDS011;68815;48.810;44.482;2023-05-07T18:19:29;4.7;;;2.1;;
79346;SDS011;68815;48.810;44.482;2023-05-07T18:22:30;4.5;;;2.3;;
79346;SDS011;68815;48.810;44.482;2023-05-07T18:25:32;4.7;;;2.4;;
79346;SDS011;68815;48.810;44.482;2023-05-07T18:28:33;4.4;;;2;;
79346;SDS011;68815;48.810;44.482;2023-05-07T18:31:35;4.8;;;2.2;;
79346;SDS011;68815;48.810;44.482;2023-05-07T18:34:36;4.8;;;2;;
79346;SDS011;68815;48.810;44.482;2023-05-07T18:37:37;5.8;;;2.2;;
79346;SDS011;68815;48.810;44.482;2023-05-07T18:40:39;5.3;;;2.3;;
79346;SDS011;68815;48.810;44.482;2023-05-07T18:43:41;5.5;;;2.5;;
79346;SDS011;68815;48.810;44.482;2023-05-07T18:46:42;8.2;;;3.2;;
79346;SDS011;68815;48.810;44.482;2023-05-07T18:49:43;6.2;;;3;;
79346;SDS011;68815;48.810;44.482;2023-05-07T18:52:45;7.3;;;3;;
79346;SDS011;68815;48.810;44.482;2023-05-07T18:55:48;6.8;;;3.2;;
79346;SDS011;68815;48.810;44.482;2023-05-07T18:58:49;8.9;;;2.8;;
79346;SDS011;68815;48.810;44.482;2023-05-07T19:01:51;7.1;;;2.8;;
79346;SDS011;68815;48.810;44.482;2023-05-07T19:04:52;9.8;;;4;;